createdAt,value
2022-09-18T00:00:17.905Z,94798.72
2022-09-18T00:05:19.925Z,94796.97
2022-09-18T00:10:22.442Z,94807.25
2022-09-18T00:15:24.790Z,94807.31
2022-09-18T00:20:26.970Z,94810.16
2022-09-18T00:25:29.999Z,94814.28
2022-09-18T00:30:32.531Z,94802.44
2022-09-18T00:35:34.727Z,94804.50
2022-09-18T00:40:37.104Z,94818.69
2022-09-18T00:45:39.426Z,94810.56
2022-09-18T00:50:41.582Z,94830.47
2022-09-18T00:55:44.376Z,94835.34
2022-09-18T01:00:46.494Z,94875.81
2022-09-18T01:05:51.948Z,94914.88
2022-09-18T01:11:00.085Z,94941.19
2022-09-18T01:16:15.279Z,94943.00
2022-09-18T01:21:32.152Z,94987.53
2022-09-18T01:27:00.944Z,95015.69
2022-09-18T01:32:28.023Z,95025.22
2022-09-18T01:37:42.533Z,95053.22
2022-09-18T01:42:48.699Z,95079.06
2022-09-18T01:47:58.112Z,95101.91
2022-09-18T01:53:15.105Z,95105.53
2022-09-18T01:58:24.206Z,95125.63
2022-09-18T02:04:07.851Z,95163.22
2022-09-18T02:09:12.037Z,95188.66
2022-09-18T02:14:16.934Z,95195.97
2022-09-18T02:20:00.322Z,95204.72
2022-09-18T02:25:05.131Z,95227.91
2022-09-18T02:30:09.205Z,95232.63
2022-09-18T02:35:11.884Z,95258.88
2022-09-18T02:40:20.416Z,95280.94
2022-09-18T02:45:44.509Z,95278.19
2022-09-18T02:50:58.805Z,95299.13
2022-09-18T02:56:14.485Z,95319.75
2022-09-18T03:01:18.713Z,95311.66
2022-09-18T03:06:21.313Z,95328.59
2022-09-18T03:11:23.755Z,95346.16
2022-09-18T03:16:25.924Z,95360.66
2022-09-18T03:21:28.299Z,95378.56
2022-09-18T03:26:30.664Z,95405.66
2022-09-18T03:31:39.227Z,95408.56
2022-09-18T03:36:42.037Z,95410.50
2022-09-18T03:41:44.612Z,95417.31
2022-09-18T03:46:47.305Z,95411.81
2022-09-18T03:51:49.487Z,95431.16
2022-09-18T03:56:52.122Z,95462.66
2022-09-18T04:02:12.874Z,95452.03
2022-09-18T04:07:41.573Z,95471.13
2022-09-18T04:13:02.396Z,95468.28
2022-09-18T04:18:09.602Z,95466.97
2022-09-18T04:23:14.554Z,95461.25
2022-09-18T04:28:16.959Z,95488.34
2022-09-18T04:33:21.505Z,95501.13
2022-09-18T04:38:27.886Z,95511.41
2022-09-18T04:43:31.260Z,95494.72
2022-09-18T04:48:34.978Z,95538.03
2022-09-18T04:53:39.698Z,95532.91
2022-09-18T04:58:42.037Z,95535.53
2022-09-18T05:03:45.840Z,95542.22
2022-09-18T05:08:58.459Z,95549.28
2022-09-18T05:14:01.612Z,95587.84
2022-09-18T05:19:07.049Z,95596.94
2022-09-18T05:24:09.534Z,95586.06
2022-09-18T05:29:12.109Z,95607.91
2022-09-18T05:34:15.530Z,95619.25
2022-09-18T05:39:18.012Z,95621.31
2022-09-18T05:44:21.332Z,95641.13
2022-09-18T05:49:24.707Z,95607.59
2022-09-18T05:54:28.605Z,95619.19
2022-09-18T05:59:33.006Z,95625.09
2022-09-18T06:04:36.666Z,95609.72
2022-09-18T06:09:42.992Z,95635.28
2022-09-18T06:14:45.253Z,95636.63
2022-09-18T06:19:52.774Z,95639.81
2022-09-18T06:24:55.077Z,95640.75
2022-09-18T06:30:06.057Z,95651.72
2022-09-18T06:35:10.647Z,95655.56
2022-09-18T06:40:13.449Z,95671.22
2022-09-18T06:45:38.687Z,95686.31
2022-09-18T06:50:40.978Z,95661.81
2022-09-18T06:55:43.462Z,95661.41
2022-09-18T07:00:46.860Z,95694.59
2022-09-18T07:05:54.644Z,95693.00
2022-09-18T07:11:09.621Z,95687.75
2022-09-18T07:16:12.522Z,95713.34
2022-09-18T07:21:18.309Z,95701.72
2022-09-18T07:26:20.455Z,95728.16
2022-09-18T07:31:23.804Z,95717.63
2022-09-18T07:36:26.993Z,95724.06
2022-09-18T07:41:29.715Z,95710.91
2022-09-18T07:46:32.017Z,95729.78
2022-09-18T07:51:38.487Z,95721.09
2022-09-18T07:56:44.747Z,95715.44
2022-09-18T08:01:55.914Z,95709.63
2022-09-18T08:07:04.461Z,95727.59
2022-09-18T08:12:27.137Z,95734.38
2022-09-18T08:17:58.432Z,95733.09
2022-09-18T08:23:33.119Z,95726.97
2022-09-18T08:28:37.746Z,95726.09
2022-09-18T08:33:41.062Z,95703.75
2022-09-18T08:38:45.528Z,95705.13
2022-09-18T08:44:07.711Z,95705.25
2022-09-18T08:49:24.916Z,95707.78
2022-09-18T08:55:04.997Z,95715.47
2022-09-18T09:00:47.071Z,95709.94
2022-09-18T09:06:35.492Z,95710.50
2022-09-18T09:11:50.586Z,95709.88
2022-09-18T09:17:13.080Z,95713.03
2022-09-18T09:22:31.601Z,95716.28
2022-09-18T09:27:39.696Z,95727.34
2022-09-18T09:33:17.348Z,95701.41
2022-09-18T09:38:48.676Z,95720.78
2022-09-18T09:44:00.803Z,95730.97
2022-09-18T09:49:18.782Z,95715.94
2022-09-18T09:54:21.938Z,95719.34
2022-09-18T09:59:43.456Z,95721.84
2022-09-18T10:05:13.230Z,95707.66
2022-09-18T10:10:37.967Z,95715.81
2022-09-18T10:15:52.899Z,95704.13
2022-09-18T10:21:07.874Z,95719.63
2022-09-18T10:26:15.334Z,95727.06
2022-09-18T10:31:18.257Z,95732.19
2022-09-18T10:36:38.703Z,95716.28
2022-09-18T10:41:47.235Z,95705.56
2022-09-18T10:46:57.296Z,95727.06
2022-09-18T10:52:30.018Z,95739.09
2022-09-18T10:57:37.210Z,95716.00
2022-09-18T11:02:49.972Z,95732.97
2022-09-18T11:07:55.065Z,95733.28
2022-09-18T11:13:01.707Z,95742.13
2022-09-18T11:18:16.165Z,95730.13
2022-09-18T11:23:18.867Z,95765.00
2022-09-18T11:28:32.964Z,95772.44
2022-09-18T11:34:01.816Z,95757.63
2022-09-18T11:39:15.888Z,95758.50
2022-09-18T11:44:39.721Z,95759.75
2022-09-18T11:49:48.170Z,95766.84
2022-09-18T11:54:58.714Z,95750.66
2022-09-18T12:00:09.477Z,95752.91
2022-09-18T12:05:52.760Z,95758.78
2022-09-18T12:11:20.803Z,95758.66
2022-09-18T12:16:52.605Z,95744.06
2022-09-18T12:22:18.093Z,95761.56
2022-09-18T12:27:52.360Z,95758.81
2022-09-18T12:33:16.428Z,95756.16
2022-09-18T12:38:50.074Z,95726.09
2022-09-18T12:44:01.341Z,95755.72
2022-09-18T12:49:29.457Z,95761.75
2022-09-18T12:54:37.552Z,95772.16
2022-09-18T12:59:50.235Z,95757.00
2022-09-18T13:05:25.646Z,95782.38
2022-09-18T13:10:33.026Z,95773.03
2022-09-18T13:16:15.728Z,95788.94
2022-09-18T13:21:24.402Z,95808.28
2022-09-18T13:26:32.340Z,95793.94
2022-09-18T13:31:36.130Z,95801.47
2022-09-18T13:36:41.348Z,95791.25
2022-09-18T13:41:48.305Z,95802.72
2022-09-18T13:46:53.057Z,95844.03
2022-09-18T13:51:56.389Z,95813.59
2022-09-18T13:57:11.207Z,95816.66
2022-09-18T14:02:36.196Z,95828.47
2022-09-18T14:07:44.971Z,95828.34
2022-09-18T14:13:08.978Z,95857.44
2022-09-18T14:19:00.670Z,95844.81
2022-09-18T14:24:25.554Z,95865.59
2022-09-18T14:29:31.670Z,95864.03
2022-09-18T14:34:42.459Z,95855.84
2022-09-18T14:39:45.439Z,95859.88
2022-09-18T14:44:52.659Z,95887.44
2022-09-18T14:49:54.982Z,95871.03
2022-09-18T14:55:00.329Z,95884.66
2022-09-18T15:00:08.342Z,95916.69
2022-09-18T15:05:12.727Z,95907.38
2022-09-18T15:10:18.899Z,95920.81
2022-09-18T15:15:28.756Z,95913.56
2022-09-18T15:20:33.365Z,95931.50
2022-09-18T15:25:46.044Z,95912.75
2022-09-18T15:30:51.036Z,95924.00
2022-09-18T15:35:55.955Z,95908.94
2022-09-18T15:40:58.211Z,95909.44
2022-09-18T15:46:13.242Z,95938.34
2022-09-18T15:51:26.437Z,95942.84
2022-09-18T15:56:30.025Z,95958.84
2022-09-18T16:01:45.747Z,95959.28
2022-09-18T16:06:59.820Z,95972.22
2022-09-18T16:12:06.882Z,95965.81
2022-09-18T16:17:36.767Z,95995.91
2022-09-18T16:22:41.296Z,95979.47
2022-09-18T16:27:49.952Z,95994.97
2022-09-18T16:33:04.796Z,96003.06
2022-09-18T16:38:07.065Z,96005.09
2022-09-18T16:43:16.466Z,96004.13
2022-09-18T16:48:19.358Z,96012.44
2022-09-18T16:53:23.673Z,95994.25
2022-09-18T16:58:28.576Z,96032.88
2022-09-18T17:03:32.739Z,96042.44
2022-09-18T17:08:37.467Z,96026.16
2022-09-18T17:13:39.731Z,96042.03
2022-09-18T17:18:42.135Z,96043.66
2022-09-18T17:23:47.120Z,96052.38
2022-09-18T17:28:49.878Z,96058.50
2022-09-18T17:33:52.552Z,96084.38
2022-09-18T17:38:54.842Z,96075.41
2022-09-18T17:43:57.060Z,96106.66
2022-09-18T17:49:02.738Z,96117.91
2022-09-18T17:54:05.791Z,96118.69
2022-09-18T17:59:10.047Z,96143.22
2022-09-18T18:04:14.065Z,96131.53
2022-09-18T18:09:18.729Z,96156.88
2022-09-18T18:14:22.895Z,96152.47
2022-09-18T18:19:25.211Z,96162.50
2022-09-18T18:24:29.987Z,96143.66
2022-09-18T18:29:33.406Z,96195.53
2022-09-18T18:34:41.840Z,96159.25
2022-09-18T18:39:44.016Z,96187.41
2022-09-18T18:44:49.196Z,96195.19
2022-09-18T18:49:55.408Z,96189.75
2022-09-18T18:54:59.859Z,96201.38
2022-09-18T19:00:05.765Z,96202.19
2022-09-18T19:05:13.018Z,96181.94
2022-09-18T19:17:21.318Z,96196.19
2022-09-18T19:22:25.449Z,96183.47
2022-09-18T19:27:27.775Z,96192.00
2022-09-18T19:32:33.416Z,96204.09
2022-09-18T19:37:36.584Z,96205.38
2022-09-18T19:42:42.934Z,96197.94
2022-09-18T19:47:48.802Z,96206.78
2022-09-18T19:52:51.595Z,96181.09
2022-09-18T19:57:56.651Z,96190.88
2022-09-18T20:02:59.782Z,96215.06
2022-09-18T20:08:02.336Z,96209.00
2022-09-18T20:13:05.117Z,96208.59
2022-09-18T20:18:07.804Z,96209.47
2022-09-18T20:23:10.760Z,96204.78
2022-09-18T20:28:12.974Z,96229.03
2022-09-18T20:33:15.433Z,96209.69
2022-09-18T20:38:17.705Z,96229.16
2022-09-18T20:43:20.333Z,96229.19
2022-09-18T20:48:27.281Z,96224.38
2022-09-18T20:53:29.504Z,96242.03
2022-09-18T20:58:34.352Z,96235.22
2022-09-18T21:03:38.227Z,96245.97
2022-09-18T21:08:45.354Z,96248.81
2022-09-18T21:13:47.740Z,96236.31
2022-09-18T21:18:50.284Z,96238.88
2022-09-18T21:24:18.557Z,96240.97
2022-09-18T21:29:23.505Z,96269.91
2022-09-18T21:34:31.483Z,96275.66
2022-09-18T21:39:34.648Z,96260.31
2022-09-18T21:44:38.075Z,96263.81
2022-09-18T21:49:40.297Z,96260.50
2022-09-18T21:54:42.472Z,96254.13
2022-09-18T21:59:44.629Z,96257.91
2022-09-18T22:04:46.789Z,96244.69
2022-09-18T22:09:51.017Z,96257.28
2022-09-18T22:14:53.245Z,96231.22
2022-09-18T22:19:56.768Z,96239.88
2022-09-18T22:24:59.238Z,96247.56
2022-09-18T22:30:01.293Z,96242.47
2022-09-18T22:35:04.790Z,96241.63
2022-09-18T22:40:07.841Z,96232.88
2022-09-18T22:45:10.726Z,96232.22
2022-09-18T22:50:12.921Z,96237.88
2022-09-18T22:55:15.086Z,96221.59
2022-09-18T23:00:17.387Z,96232.88
2022-09-18T23:05:19.729Z,96228.03
2022-09-18T23:10:22.333Z,96252.00
2022-09-18T23:15:24.360Z,96226.22
2022-09-18T23:20:26.419Z,96236.88
2022-09-18T23:25:28.614Z,96224.75
2022-09-18T23:30:31.248Z,96216.06
2022-09-18T23:35:33.366Z,96229.00
2022-09-18T23:40:36.301Z,96214.88
2022-09-18T23:45:38.803Z,96221.56
2022-09-18T23:50:43.492Z,96218.81
2022-09-18T23:55:46.731Z,96215.53
